createdAt,value
2019-02-14T00:00:08.884Z,99.90
2019-02-14T00:02:37.900Z,99.90
2019-02-14T00:05:06.881Z,99.90
2019-02-14T00:07:35.466Z,99.90
2019-02-14T00:10:06.504Z,99.90
2019-02-14T00:12:35.133Z,99.90
2019-02-14T00:15:04.827Z,99.90
2019-02-14T00:17:33.392Z,99.90
2019-02-14T00:20:01.990Z,99.90
2019-02-14T00:22:30.541Z,99.90
2019-02-14T00:24:59.100Z,99.90
2019-02-14T00:27:28.000Z,99.90
2019-02-14T00:30:15.899Z,99.90
2019-02-14T00:32:44.482Z,99.90
2019-02-14T00:35:13.115Z,99.90
2019-02-14T00:37:41.632Z,99.90
2019-02-14T00:40:10.427Z,99.90
2019-02-14T00:42:38.999Z,99.90
2019-02-14T00:45:08.135Z,99.90
2019-02-14T00:47:36.690Z,99.90
2019-02-14T00:50:07.385Z,99.90
2019-02-14T00:52:35.933Z,99.90
2019-02-14T00:55:06.137Z,99.90
2019-02-14T00:57:34.726Z,99.90
2019-02-14T01:00:05.965Z,99.90
2019-02-14T01:02:34.679Z,99.90
2019-02-14T01:05:03.495Z,99.90
2019-02-14T01:07:32.054Z,99.90
2019-02-14T01:10:00.633Z,99.90
2019-02-14T01:12:29.185Z,99.90
2019-02-14T01:14:57.801Z,99.90
2019-02-14T01:17:26.335Z,99.90
2019-02-14T01:19:54.795Z,99.90
2019-02-14T01:22:23.331Z,99.90
2019-02-14T01:24:51.892Z,99.90
2019-02-14T01:27:20.462Z,99.90
2019-02-14T01:29:48.958Z,99.90
2019-02-14T01:32:17.552Z,99.90
2019-02-14T01:34:46.105Z,99.90
2019-02-14T01:37:14.562Z,99.90
2019-02-14T01:39:43.099Z,99.90
2019-02-14T01:42:11.597Z,99.90
2019-02-14T01:44:40.176Z,99.90
2019-02-14T01:47:08.795Z,99.90
2019-02-14T01:49:37.296Z,99.90
2019-02-14T01:52:05.861Z,99.90
2019-02-14T01:54:34.724Z,99.90
2019-02-14T01:57:03.420Z,99.90
2019-02-14T01:59:31.990Z,99.90
2019-02-14T02:02:00.615Z,99.90
2019-02-14T02:04:29.197Z,99.90
2019-02-14T02:06:57.760Z,99.90
2019-02-14T02:09:26.438Z,99.90
2019-02-14T02:11:54.987Z,99.90
2019-02-14T02:14:23.543Z,99.90
2019-02-14T02:16:52.178Z,99.90
2019-02-14T02:19:20.620Z,99.90
2019-02-14T02:21:49.152Z,99.90
2019-02-14T02:24:17.709Z,99.90
2019-02-14T02:26:46.240Z,99.90
2019-02-14T02:29:14.784Z,99.90
2019-02-14T02:31:43.337Z,99.90
2019-02-14T02:34:11.910Z,99.90
2019-02-14T02:36:40.493Z,99.90
2019-02-14T02:39:09.058Z,99.90
2019-02-14T02:41:37.637Z,99.90
2019-02-14T02:44:06.192Z,99.90
2019-02-14T02:46:34.775Z,99.90
2019-02-14T02:49:03.350Z,99.90
2019-02-14T02:51:31.936Z,99.90
2019-02-14T02:54:00.502Z,99.90
2019-02-14T02:56:29.058Z,99.90
2019-02-14T02:58:57.638Z,99.90
2019-02-14T03:01:26.203Z,99.90
2019-02-14T03:03:54.783Z,99.90
2019-02-14T03:06:23.345Z,99.90
2019-02-14T03:08:51.840Z,99.90
2019-02-14T03:11:20.438Z,99.90
2019-02-14T03:13:49.006Z,99.90
2019-02-14T03:16:17.604Z,99.90
2019-02-14T03:18:46.161Z,99.90
2019-02-14T03:21:14.722Z,99.90
2019-02-14T03:23:43.306Z,99.90
2019-02-14T03:26:11.860Z,99.90
2019-02-14T03:28:40.444Z,99.90
2019-02-14T03:31:09.077Z,99.90
2019-02-14T03:33:37.635Z,99.90
2019-02-14T03:36:06.199Z,99.90
2019-02-14T03:38:34.778Z,99.90
2019-02-14T03:41:03.350Z,99.90
2019-02-14T03:43:32.353Z,99.90
2019-02-14T03:46:01.033Z,99.90
2019-02-14T03:48:29.598Z,99.90
2019-02-14T03:50:58.164Z,99.90
2019-02-14T03:53:26.738Z,99.90
2019-02-14T03:55:55.234Z,99.90
2019-02-14T03:58:23.884Z,99.90
2019-02-14T04:00:52.518Z,99.90
2019-02-14T04:03:21.059Z,99.90
2019-02-14T04:05:49.637Z,99.90
2019-02-14T04:08:18.197Z,99.90
2019-02-14T04:10:46.783Z,99.90
2019-02-14T04:13:15.601Z,99.90
2019-02-14T04:15:44.231Z,99.90
2019-02-14T04:18:13.193Z,99.90
2019-02-14T04:20:41.745Z,99.90
2019-02-14T04:23:10.332Z,99.90
2019-02-14T04:25:38.907Z,99.90
2019-02-14T04:28:07.472Z,99.90
2019-02-14T04:30:36.056Z,99.90
2019-02-14T04:33:04.687Z,99.90
2019-02-14T04:35:33.329Z,99.90
2019-02-14T04:38:01.886Z,99.90
2019-02-14T04:40:33.656Z,99.90
2019-02-14T04:43:00.696Z,99.90
2019-02-14T04:45:29.256Z,99.90
2019-02-14T04:47:57.841Z,99.90
2019-02-14T04:50:26.399Z,99.90
2019-02-14T04:52:54.982Z,99.90
2019-02-14T04:55:23.548Z,99.90
2019-02-14T04:57:52.106Z,99.90
2019-02-14T05:00:20.681Z,99.90
2019-02-14T05:02:49.247Z,99.90
2019-02-14T05:05:17.762Z,99.90
2019-02-14T05:07:46.241Z,99.90
2019-02-14T05:10:14.807Z,99.90
2019-02-14T05:12:43.382Z,99.90
2019-02-14T05:15:12.180Z,99.90
2019-02-14T05:17:40.782Z,99.90
2019-02-14T05:20:28.661Z,99.90
2019-02-14T05:22:57.248Z,99.90
2019-02-14T05:25:25.988Z,99.90
2019-02-14T05:27:54.577Z,99.90
2019-02-14T05:30:23.145Z,99.90
2019-02-14T05:32:51.785Z,99.90
2019-02-14T05:35:33.797Z,99.90
2019-02-14T05:38:02.383Z,99.90
2019-02-14T05:40:30.951Z,99.90
2019-02-14T05:42:59.842Z,99.90
2019-02-14T05:45:28.418Z,99.90
2019-02-14T05:47:57.004Z,99.90
2019-02-14T05:50:25.506Z,99.90
2019-02-14T05:52:54.373Z,99.90
2019-02-14T05:55:22.973Z,99.90
2019-02-14T05:57:51.450Z,99.90
2019-02-14T06:00:20.728Z,99.90
2019-02-14T06:02:49.373Z,99.90
2019-02-14T06:05:17.987Z,99.90
2019-02-14T06:07:46.525Z,99.90
2019-02-14T06:10:15.065Z,99.90
2019-02-14T06:12:44.555Z,99.90
2019-02-14T06:15:13.854Z,99.90
2019-02-14T06:17:42.462Z,99.90
2019-02-14T06:20:11.967Z,99.90
2019-02-14T06:22:59.980Z,99.90
2019-02-14T06:25:28.541Z,99.90
2019-02-14T06:27:57.411Z,99.90
2019-02-14T06:30:25.996Z,99.90
2019-02-14T06:32:57.527Z,99.90
2019-02-14T06:35:26.433Z,99.90
2019-02-14T06:37:55.011Z,99.90
2019-02-14T06:40:23.575Z,99.90
2019-02-14T06:42:52.186Z,99.90
2019-02-14T06:45:20.799Z,99.90
2019-02-14T06:47:49.654Z,99.90
2019-02-14T06:50:18.233Z,99.90
2019-02-14T06:52:46.808Z,99.90
2019-02-14T06:55:15.400Z,99.90
2019-02-14T06:57:43.959Z,99.90
2019-02-14T07:00:15.195Z,99.90
2019-02-14T07:02:43.871Z,99.90
2019-02-14T07:05:12.548Z,99.90
2019-02-14T07:07:41.180Z,99.90
2019-02-14T07:10:11.115Z,99.90
2019-02-14T07:12:39.778Z,99.90
2019-02-14T07:15:11.420Z,99.90
2019-02-14T07:17:40.059Z,99.90
2019-02-14T07:20:16.608Z,99.90
2019-02-14T07:22:45.244Z,99.90
2019-02-14T07:25:13.897Z,99.90
2019-02-14T07:27:42.460Z,99.90
2019-02-14T07:30:19.846Z,99.90
2019-02-14T07:32:48.407Z,99.90
2019-02-14T07:35:17.363Z,99.90
2019-02-14T07:37:45.953Z,99.90
2019-02-14T07:40:15.147Z,99.90
2019-02-14T07:42:43.844Z,99.90
2019-02-14T07:45:15.212Z,99.90
2019-02-14T07:47:43.787Z,99.90
2019-02-14T07:50:13.618Z,99.90
2019-02-14T07:52:42.325Z,99.90
2019-02-14T07:55:14.581Z,99.90
2019-02-14T07:57:43.155Z,99.90
2019-02-14T08:00:17.325Z,99.90
2019-02-14T08:02:45.890Z,99.90
2019-02-14T08:05:14.464Z,99.90
2019-02-14T08:07:43.040Z,99.90
2019-02-14T08:10:14.506Z,99.90
2019-02-14T08:12:43.025Z,99.90
2019-02-14T08:15:13.440Z,99.90
2019-02-14T08:17:42.104Z,99.90
2019-02-14T08:20:19.148Z,99.90
2019-02-14T08:22:47.715Z,99.90
2019-02-14T08:25:16.382Z,99.90
2019-02-14T08:27:44.961Z,86.20
2019-02-14T08:30:19.047Z,90.60
2019-02-14T08:32:47.639Z,98.50
2019-02-14T08:35:16.257Z,90.50
2019-02-14T08:37:46.036Z,91.10
2019-02-14T08:40:23.668Z,96.70
2019-02-14T08:42:52.262Z,86.80
2019-02-14T08:45:20.888Z,82.10
2019-02-14T08:47:49.452Z,76.90
2019-02-14T08:50:18.112Z,75.50
2019-02-14T08:52:46.742Z,73.70
2019-02-14T08:55:15.311Z,72.00
2019-02-14T08:57:43.906Z,69.00
2019-02-14T09:00:17.165Z,71.20
2019-02-14T09:02:45.757Z,67.60
2019-02-14T09:05:14.472Z,66.00
2019-02-14T09:07:43.056Z,67.10
2019-02-14T09:10:16.184Z,67.10
2019-02-14T09:12:44.742Z,64.90
2019-02-14T09:15:14.514Z,62.00
2019-02-14T09:17:43.111Z,62.90
2019-02-14T09:20:14.411Z,63.90
2019-02-14T09:22:42.970Z,60.40
2019-02-14T09:25:11.682Z,59.20
2019-02-14T09:27:40.287Z,59.10
2019-02-14T09:30:13.716Z,58.70
2019-02-14T09:32:42.442Z,59.10
2019-02-14T09:35:11.237Z,56.80
2019-02-14T09:37:39.789Z,58.10
2019-02-14T09:40:13.422Z,54.80
2019-02-14T09:42:42.123Z,52.00
2019-02-14T09:45:14.401Z,51.50
2019-02-14T09:47:43.036Z,53.70
2019-02-14T09:50:13.363Z,54.30
2019-02-14T09:52:42.306Z,53.10
2019-02-14T09:55:14.490Z,53.90
2019-02-14T09:57:43.066Z,54.40
2019-02-14T10:00:14.243Z,49.60
2019-02-14T10:02:42.947Z,55.20
2019-02-14T10:05:11.655Z,53.00
2019-02-14T10:07:40.181Z,52.00
2019-02-14T10:10:12.260Z,49.10
2019-02-14T10:12:40.806Z,49.40
2019-02-14T10:15:10.483Z,49.10
2019-02-14T10:17:39.028Z,49.20
2019-02-14T10:20:18.266Z,50.50
2019-02-14T10:22:46.843Z,47.60
2019-02-14T10:25:15.561Z,46.20
2019-02-14T10:27:44.180Z,44.70
2019-02-14T10:30:17.859Z,48.50
2019-02-14T10:32:46.557Z,48.80
2019-02-14T10:35:15.186Z,48.60
2019-02-14T10:37:44.079Z,48.50
2019-02-14T10:40:14.695Z,48.10
2019-02-14T10:42:43.175Z,46.90
2019-02-14T10:45:20.430Z,46.20
2019-02-14T10:47:49.053Z,45.00
2019-02-14T10:50:17.674Z,46.70
2019-02-14T10:52:46.795Z,46.30
2019-02-14T10:55:16.077Z,46.20
2019-02-14T10:57:44.783Z,45.90
2019-02-14T11:00:26.514Z,46.50
2019-02-14T11:02:55.171Z,47.00
2019-02-14T11:05:23.873Z,48.30
2019-02-14T11:07:52.520Z,49.20
2019-02-14T11:10:21.109Z,49.60
2019-02-14T11:12:49.680Z,50.30
2019-02-14T11:15:23.656Z,48.90
2019-02-14T11:17:52.129Z,49.80
2019-02-14T11:20:20.659Z,49.30
2019-02-14T11:22:49.534Z,47.50
2019-02-14T11:25:30.351Z,46.80
2019-02-14T11:27:58.943Z,47.20
2019-02-14T11:30:27.500Z,48.10
2019-02-14T11:32:56.088Z,47.30
2019-02-14T11:35:24.735Z,47.10
2019-02-14T11:37:53.313Z,47.50
2019-02-14T11:40:21.878Z,46.60
2019-02-14T11:42:50.424Z,47.30
2019-02-14T11:45:38.287Z,47.00
2019-02-14T11:48:06.844Z,43.50
2019-02-14T11:50:35.341Z,43.40
2019-02-14T11:53:03.983Z,43.70
2019-02-14T11:55:32.535Z,42.80
2019-02-14T11:58:01.121Z,43.40
2019-02-14T12:00:29.676Z,44.20
2019-02-14T12:02:58.120Z,43.10
2019-02-14T12:05:26.682Z,42.30
2019-02-14T12:07:55.240Z,43.10
2019-02-14T12:10:24.089Z,42.70
2019-02-14T12:12:52.650Z,42.60
2019-02-14T12:15:23.233Z,42.00
2019-02-14T12:17:51.533Z,40.60
2019-02-14T12:20:20.075Z,40.00
2019-02-14T12:22:48.597Z,40.10
2019-02-14T12:25:25.381Z,40.60
2019-02-14T12:27:53.964Z,39.70
2019-02-14T12:30:22.659Z,40.40
2019-02-14T12:32:51.236Z,41.50
2019-02-14T12:35:19.882Z,41.80
2019-02-14T12:37:48.438Z,40.50
2019-02-14T12:40:17.092Z,41.00
2019-02-14T12:42:45.723Z,40.40
2019-02-14T12:45:26.196Z,40.50
2019-02-14T12:47:55.267Z,40.60
2019-02-14T12:50:23.819Z,40.50
2019-02-14T12:52:52.331Z,40.70
2019-02-14T12:55:20.807Z,40.80
2019-02-14T12:57:49.362Z,40.10
2019-02-14T13:00:24.656Z,40.30
2019-02-14T13:02:53.332Z,40.10
2019-02-14T13:05:22.116Z,41.40
2019-02-14T13:07:50.673Z,42.40
2019-02-14T13:10:19.480Z,41.00
2019-02-14T13:12:48.156Z,41.10
2019-02-14T13:15:24.997Z,42.40
2019-02-14T13:17:53.611Z,41.50
2019-02-14T13:20:22.237Z,42.30
2019-02-14T13:22:50.917Z,41.90
2019-02-14T13:25:19.450Z,41.50
2019-02-14T13:27:47.930Z,43.10
2019-02-14T13:30:22.480Z,42.90
2019-02-14T13:32:51.027Z,42.40
2019-02-14T13:35:20.056Z,43.40
2019-02-14T13:37:48.682Z,43.30
2019-02-14T13:40:17.296Z,43.60
2019-02-14T13:42:45.895Z,43.50
2019-02-14T13:45:17.630Z,45.10
2019-02-14T13:47:46.151Z,45.10
2019-02-14T13:50:16.047Z,47.00
2019-02-14T13:52:44.797Z,46.30
2019-02-14T13:55:13.635Z,45.00
2019-02-14T13:57:42.224Z,44.40
2019-02-14T14:00:25.766Z,44.30
2019-02-14T14:02:54.298Z,43.30
2019-02-14T14:05:22.880Z,43.30
2019-02-14T14:07:51.365Z,43.40
2019-02-14T14:10:20.057Z,42.80
2019-02-14T14:12:48.704Z,42.70
2019-02-14T14:15:17.327Z,44.10
2019-02-14T14:17:46.252Z,42.80
2019-02-14T14:20:14.823Z,43.20
2019-02-14T14:22:43.376Z,43.60
2019-02-14T14:25:12.579Z,46.60
2019-02-14T14:27:41.616Z,49.60
2019-02-14T14:30:14.359Z,52.00
2019-02-14T14:32:42.917Z,54.40
2019-02-14T14:35:12.328Z,54.80
2019-02-14T14:37:41.073Z,55.80
2019-02-14T14:40:17.437Z,57.50
2019-02-14T14:42:50.565Z,57.80
2019-02-14T14:45:21.501Z,59.70
2019-02-14T14:47:50.047Z,60.20
2019-02-14T14:50:18.551Z,62.50
2019-02-14T14:52:47.104Z,61.50
2019-02-14T14:55:15.688Z,62.90
2019-02-14T14:57:44.257Z,63.70
2019-02-14T15:00:13.586Z,61.70
2019-02-14T15:02:42.195Z,61.70
2019-02-14T15:05:10.817Z,60.00
2019-02-14T15:07:39.409Z,61.10
2019-02-14T15:10:08.563Z,62.00
2019-02-14T15:12:37.145Z,62.70
2019-02-14T15:15:07.452Z,63.80
2019-02-14T15:17:35.927Z,62.60
2019-02-14T15:20:06.987Z,63.80
2019-02-14T15:22:35.553Z,67.50
2019-02-14T15:25:04.264Z,68.30
2019-02-14T15:27:32.766Z,66.90
2019-02-14T15:30:01.294Z,67.50
2019-02-14T15:32:30.023Z,68.30
2019-02-14T15:34:58.591Z,69.00
2019-02-14T15:37:27.541Z,69.20
2019-02-14T15:39:56.107Z,71.10
2019-02-14T15:42:25.020Z,71.20
2019-02-14T15:44:53.665Z,73.60
2019-02-14T15:47:22.232Z,72.10
2019-02-14T15:49:50.827Z,74.30
2019-02-14T15:52:19.384Z,73.50
2019-02-14T15:54:47.950Z,74.20
2019-02-14T15:57:18.259Z,76.70
2019-02-14T15:59:46.819Z,80.50
2019-02-14T16:02:15.466Z,81.90
2019-02-14T16:04:45.887Z,81.80
2019-02-14T16:07:15.420Z,82.30
2019-02-14T16:09:44.485Z,81.10
2019-02-14T16:12:13.091Z,80.20
2019-02-14T16:14:42.771Z,81.50
2019-02-14T16:17:13.723Z,81.10
2019-02-14T16:19:42.170Z,82.90
2019-02-14T16:22:10.699Z,83.60
2019-02-14T16:24:41.255Z,83.30
2019-02-14T16:27:09.528Z,81.30
2019-02-14T16:29:38.078Z,81.10
2019-02-14T16:32:06.607Z,81.70
2019-02-14T16:34:35.152Z,83.50
2019-02-14T16:37:04.613Z,84.50
2019-02-14T16:39:33.279Z,84.50
2019-02-14T16:42:01.790Z,86.10
2019-02-14T16:44:30.387Z,90.20
2019-02-14T16:46:59.286Z,91.00
2019-02-14T16:49:27.837Z,91.20
2019-02-14T16:51:56.400Z,91.50
2019-02-14T16:54:24.901Z,91.50
2019-02-14T16:56:53.490Z,91.90
2019-02-14T16:59:22.058Z,92.10
2019-02-14T17:01:50.695Z,92.50
2019-02-14T17:04:19.264Z,93.10
2019-02-14T17:07:07.187Z,93.30
2019-02-14T17:09:36.053Z,93.80
2019-02-14T17:12:04.591Z,95.40
2019-02-14T17:14:33.090Z,97.40
2019-02-14T17:17:01.998Z,97.20
2019-02-14T17:19:30.590Z,97.50
2019-02-14T17:21:59.154Z,97.80
2019-02-14T17:24:27.708Z,98.60
2019-02-14T17:26:56.283Z,98.50
2019-02-14T17:29:24.830Z,97.90
2019-02-14T17:31:53.460Z,98.40
2019-02-14T17:34:22.034Z,98.10
2019-02-14T17:36:50.579Z,98.60
2019-02-14T17:39:19.409Z,98.40
2019-02-14T17:41:47.894Z,99.50
2019-02-14T17:44:16.523Z,99.90
2019-02-14T17:46:48.777Z,99.90
2019-02-14T17:49:17.362Z,99.90
2019-02-14T17:51:46.310Z,99.90
2019-02-14T17:54:14.796Z,99.90
2019-02-14T17:56:43.460Z,99.90
2019-02-14T17:59:12.018Z,99.90
2019-02-14T18:01:40.575Z,99.90
2019-02-14T18:04:09.155Z,99.90
2019-02-14T18:06:37.789Z,99.90
2019-02-14T18:09:06.730Z,99.90
2019-02-14T18:11:35.434Z,99.90
2019-02-14T18:14:04.000Z,99.90
2019-02-14T18:16:32.595Z,99.90
2019-02-14T18:19:01.168Z,99.90
2019-02-14T18:21:29.759Z,99.90
2019-02-14T18:23:58.313Z,99.90
2019-02-14T18:26:26.836Z,99.90
2019-02-14T18:28:55.471Z,99.90
2019-02-14T18:31:24.032Z,99.90
2019-02-14T18:33:52.979Z,99.90
2019-02-14T18:36:21.540Z,99.90
2019-02-14T18:38:50.130Z,99.90
2019-02-14T18:41:18.683Z,99.90
2019-02-14T18:43:47.215Z,99.90
2019-02-14T18:46:15.714Z,99.90
2019-02-14T18:48:44.232Z,99.90
2019-02-14T18:51:12.943Z,99.90
2019-02-14T18:53:41.508Z,99.90
2019-02-14T18:56:10.078Z,99.90
2019-02-14T18:58:38.637Z,99.90
2019-02-14T19:01:07.191Z,99.90
2019-02-14T19:03:35.772Z,99.90
2019-02-14T19:06:04.359Z,99.90
2019-02-14T19:08:32.899Z,99.90
2019-02-14T19:11:01.494Z,99.90
2019-02-14T19:13:30.100Z,99.90
2019-02-14T19:15:58.684Z,99.90
2019-02-14T19:18:27.245Z,99.90
2019-02-14T19:20:55.962Z,99.90
2019-02-14T19:23:24.601Z,99.90
2019-02-14T19:25:53.190Z,99.90
2019-02-14T19:28:22.052Z,99.90
2019-02-14T19:30:50.621Z,99.90
2019-02-14T19:33:19.172Z,99.90
2019-02-14T19:35:47.752Z,99.90
2019-02-14T19:38:16.291Z,99.90
2019-02-14T19:40:45.257Z,99.90
2019-02-14T19:43:13.967Z,99.90
2019-02-14T19:45:42.502Z,99.90
2019-02-14T19:48:11.088Z,99.90
2019-02-14T19:50:39.962Z,99.90
2019-02-14T19:53:08.458Z,99.90
2019-02-14T19:55:36.998Z,99.90
2019-02-14T19:58:05.485Z,99.90
2019-02-14T20:00:34.087Z,99.90
2019-02-14T20:03:02.635Z,99.90
2019-02-14T20:05:31.343Z,99.90
2019-02-14T20:07:59.970Z,99.90
2019-02-14T20:10:28.845Z,99.90
2019-02-14T20:12:57.387Z,99.90
2019-02-14T20:15:25.935Z,99.90
2019-02-14T20:17:54.516Z,99.90
2019-02-14T20:20:23.433Z,99.90
2019-02-14T20:22:52.064Z,99.90
2019-02-14T20:25:25.924Z,99.90
2019-02-14T20:27:54.573Z,99.90
2019-02-14T20:30:23.215Z,99.90
2019-02-14T20:32:52.170Z,99.90
2019-02-14T20:35:20.739Z,99.90
2019-02-14T20:37:49.310Z,99.90
2019-02-14T20:40:17.891Z,99.90
2019-02-14T20:42:46.459Z,99.90
2019-02-14T20:45:15.563Z,99.90
2019-02-14T20:47:44.161Z,99.90
2019-02-14T20:50:14.437Z,99.90
2019-02-14T20:52:43.486Z,99.90
2019-02-14T20:55:15.264Z,99.90
2019-02-14T20:57:44.626Z,99.90
2019-02-14T21:00:15.093Z,99.90
2019-02-14T21:02:43.791Z,99.90
2019-02-14T21:05:12.541Z,99.90
2019-02-14T21:07:41.175Z,99.90
2019-02-14T21:10:09.865Z,99.90
2019-02-14T21:12:38.588Z,99.90
2019-02-14T21:15:09.523Z,99.90
2019-02-14T21:17:38.080Z,99.90
2019-02-14T21:20:09.746Z,99.90
2019-02-14T21:22:38.749Z,99.90
2019-02-14T21:25:08.673Z,99.90
2019-02-14T21:27:37.185Z,99.90
2019-02-14T21:30:09.615Z,99.90
2019-02-14T21:32:38.262Z,99.90
2019-02-14T21:35:07.593Z,99.90
2019-02-14T21:37:36.312Z,99.90
2019-02-14T21:40:10.859Z,99.90
2019-02-14T21:42:39.463Z,99.90
2019-02-14T21:45:11.396Z,99.90
2019-02-14T21:47:40.023Z,99.90
2019-02-14T21:50:10.723Z,99.90
2019-02-14T21:52:39.390Z,99.90
2019-02-14T21:55:12.984Z,99.90
2019-02-14T21:57:41.917Z,99.90
2019-02-14T22:00:14.855Z,99.90
2019-02-14T22:02:43.854Z,99.90
2019-02-14T22:05:12.456Z,99.90
2019-02-14T22:07:41.019Z,99.90
2019-02-14T22:10:11.683Z,99.90
2019-02-14T22:12:42.328Z,99.90
2019-02-14T22:15:16.178Z,99.90
2019-02-14T22:17:44.935Z,99.90
2019-02-14T22:20:13.917Z,99.90
2019-02-14T22:22:42.444Z,99.90
2019-02-14T22:25:11.556Z,99.90
2019-02-14T22:27:40.165Z,99.90
2019-02-14T22:30:18.291Z,99.90
2019-02-14T22:32:46.978Z,99.90
2019-02-14T22:35:15.614Z,99.90
2019-02-14T22:37:44.164Z,99.90
2019-02-14T22:40:13.792Z,99.90
2019-02-14T22:42:47.081Z,99.90
2019-02-14T22:45:14.249Z,99.90
2019-02-14T22:47:44.060Z,99.90
2019-02-14T22:50:13.569Z,99.90
2019-02-14T22:52:42.049Z,99.90
2019-02-14T22:55:11.976Z,99.90
2019-02-14T22:57:40.584Z,99.90
2019-02-14T23:00:14.974Z,99.90
2019-02-14T23:02:43.616Z,99.90
2019-02-14T23:05:12.163Z,99.90
2019-02-14T23:07:40.881Z,99.90
2019-02-14T23:10:09.624Z,99.90
2019-02-14T23:12:38.277Z,99.90
2019-02-14T23:15:07.962Z,99.90
2019-02-14T23:17:36.510Z,99.90
2019-02-14T23:20:06.515Z,99.90
2019-02-14T23:22:35.094Z,99.90
2019-02-14T23:25:04.557Z,99.90
2019-02-14T23:27:33.115Z,99.90
2019-02-14T23:30:01.651Z,99.90
2019-02-14T23:32:30.304Z,99.90
2019-02-14T23:34:58.879Z,99.90
2019-02-14T23:37:27.425Z,99.90
2019-02-14T23:39:55.965Z,99.90
2019-02-14T23:42:25.024Z,99.90
2019-02-14T23:44:53.576Z,99.90
2019-02-14T23:47:22.128Z,99.90
2019-02-14T23:49:50.724Z,99.90
2019-02-14T23:52:19.346Z,99.90
2019-02-14T23:54:47.897Z,99.90
2019-02-14T23:57:16.469Z,99.90
2019-02-14T23:59:45.091Z,99.90
